Latest Weather Observations for Nowra

IDN60801

Issued at 11:32 pm EST Wednesday 23 August 2017 (issued every 30 minutes, with the page automatically refreshed every 10 minutes)

About weather observations | Map of weather stations | Latest weather observations for NSW | Other Formats
Station Details ID: 068072 Name: NOWRA RAN AIR STATION AWS Lat: -34.95 Lon: 150.54 Height: 109.0 m
Data from the previous 72 hours. | See also: Recent months at Nowra
Date/Time
EST
Temp
°C
App
Temp
°C
Dew
Point
°C
Rel
Hum
%
Delta-T
°C
Wind Press
QNH
hPa
Press
MSL
hPa
Rain since
9am
mm
Dir  Spd
km/h
Gust
km/h
Spd
kts
Gust
kts
23/11:30pm 7.8 4.2 3.1 72 2.0 NW 11 13 6 7 1017.4 1017.4 0.0
23/11:00pm 7.9 4.3 2.8 70 2.2 NNW 11 13 6 7 1017.4 1017.4 0.0
23/10:30pm 9.3 5.3 3.1 65 2.7 NW 13 15 7 8 1017.3 1017.3 0.0
23/10:00pm 9.5 5.6 3.3 65 2.7 WNW 13 13 7 7 1017.2 1017.2 0.0
23/09:30pm 9.8 5.9 3.5 65 2.8 NW 13 15 7 8 1017.1 1017.1 0.0
23/09:00pm 9.7 6.4 2.6 61 3.0 WNW 9 13 5 7 1017.1 1017.1 0.0
23/08:30pm 10.0 6.7 2.6 60 3.2 WNW 9 13 5 7 1017.0 1017.0 0.0
23/08:00pm 9.3 6.1 2.9 64 2.7 NW 9 11 5 6 1016.9 1016.9 0.0
23/07:30pm 9.8 8.5 4.2 68 2.5 CALM 0 0 0 0 1016.9 1016.9 0.0
23/07:00pm 9.8 7.3 4.0 67 2.6 WSW 6 9 3 5 1016.8 1016.8 0.0
23/06:30pm 9.6 7.2 4.4 70 2.3 SSW 6 7 3 4 1016.5 1016.5 0.0
23/06:00pm 13.0 10.4 4.2 55 4.0 SSW 7 20 4 11 1016.3 1016.3 0.0
23/05:30pm 16.0 13.2 5.0 48 5.2 S 9 11 5 6 1015.9 1015.9 0.0
23/05:00pm 18.9 14.7 1.4 31 7.9 WSW 13 19 7 10 1015.6 1015.6 0.0
23/04:30pm 20.0 14.5 0.5 27 8.7 WSW 19 26 10 14 1015.4 1015.4 0.0
23/04:00pm 20.8 15.1 0.6 26 9.1 WSW 20 28 11 15 1015.3 1015.3 0.0
23/03:30pm 21.2 15.6 -0.1 24 9.5 WSW 19 28 10 15 1015.2 1015.2 0.0
23/03:00pm 21.6 16.4 0.2 24 9.7 WSW 17 24 9 13 1015.2 1015.2 0.0
23/02:30pm 21.6 15.9 0.8 25 9.5 WSW 20 28 11 15 1015.2 1015.2 0.0
23/02:00pm 21.8 17.0 0.4 24 9.7 W 15 22 8 12 1015.3 1015.3 0.0
23/01:30pm 21.1 16.6 -0.2 24 9.5 NW 13 24 7 13 1015.7 1015.7 0.0
23/01:00pm 21.6 17.6 0.8 25 9.5 WNW 11 26 6 14 1016.1 1016.1 0.0
23/12:30pm 20.7 15.6 0.5 26 9.1 N 17 30 9 16 1016.6 1016.6 0.0
23/12:00pm 20.1 15.1 1.5 29 8.5 N 17 32 9 17 1017.2 1017.2 0.0
23/11:30am 19.8 15.2 1.7 30 8.3 NW 15 26 8 14 1017.7 1017.7 0.0
23/11:00am 19.4 15.4 2.7 33 7.8 NW 13 20 7 11 1018.1 1018.1 0.0
23/10:30am 17.9 13.6 3.4 38 6.8 NW 15 20 8 11 1018.5 1018.5 0.0
23/10:00am 16.5 12.0 4.2 44 5.8 NNW 17 20 9 11 1018.6 1018.6 0.0
23/09:30am 14.9 9.7 3.7 47 5.1 NW 20 26 11 14 1018.9 1019.0 0.0
23/09:00am 13.6 8.4 3.4 50 4.6 NW 20 28 11 15 1018.9 1019.0 0.0
23/08:30am 12.5 7.3 3.5 54 4.0 NW 20 26 11 14 1018.9 1019.0 0.0
23/08:00am 11.1 5.6 4.1 62 3.1 NW 22 28 12 15 1019.1 1019.2 0.0
23/07:30am 9.9 4.8 4.1 67 2.6 NW 20 26 11 14 1019.1 1019.2 0.0
23/07:00am 9.0 3.9 4.2 72 2.1 NW 20 26 11 14 1019.0 1019.1 0.0
23/06:30am 8.4 3.4 4.4 76 1.8 NW 20 26 11 14 1018.9 1019.0 0.0
23/06:00am 8.3 3.4 4.9 79 1.5 WNW 20 24 11 13 1018.8 1018.8 0.0
23/05:30am 7.1 3.0 4.6 84 1.1 NW 15 19 8 10 1018.9 1019.0 0.0
23/05:00am 7.2 4.0 4.9 85 1.0 NW 11 15 6 8 1018.8 1018.8 0.0
23/04:30am 6.7 2.7 4.7 87 0.9 NW 15 15 8 8 1018.7 1018.7 0.0
23/04:00am 6.6 2.6 4.8 88 0.8 NW 15 17 8 9 1018.9 1019.0 0.0
23/03:30am 6.8 2.8 4.8 87 0.9 NW 15 17 8 9 1019.0 1019.1 0.0
23/03:00am 7.8 4.2 5.1 83 1.2 NNW 13 15 7 8 1019.0 1019.1 0.0
23/02:30am 6.4 2.8 4.9 90 0.7 NW 13 15 7 8 1019.0 1019.1 0.0
23/02:00am 6.5 2.5 4.8 89 0.7 WNW 15 15 8 8 1019.2 1019.3 0.0
23/01:30am 7.6 4.0 4.9 83 1.2 WNW 13 15 7 8 1019.3 1019.4 0.0
23/01:00am 7.3 4.1 5.3 87 0.9 WNW 11 13 6 7 1019.6 1019.7 0.0
23/12:30am 3.9 2.1 3.3 96 0.2 WNW 2 7 1 4 1019.7 1019.8 0.0
23/12:00am 5.0 3.8 4.4 96 0.3 CALM 0 0 0 0 1019.8 1019.9 0.0
 
Date/Time
EST
Temp
°C
App
Temp
°C
Dew
Point
°C
Rel
Hum
%
Delta-T
°C
Wind Press
QNH
hPa
Press
MSL
hPa
Rain since
9am
mm
Dir  Spd
km/h
Gust
km/h
Spd
kts
Gust
kts
22/11:30pm 5.9 4.7 4.7 92 0.5 CALM 0 0 0 0 1019.9 1020.0 0.0
22/11:00pm 6.8 5.8 5.7 93 0.5 CALM 0 0 0 0 1020.0 1020.1 0.0
22/10:30pm 6.3 5.2 5.3 93 0.4 CALM 0 0 0 0 1020.3 1020.4 0.0
22/10:00pm 6.5 4.6 5.0 90 0.7 NW 4 7 2 4 1020.4 1020.5 0.0
22/09:30pm 6.7 4.6 5.7 93 0.4 WNW 6 7 3 4 1020.4 1020.5 0.0
22/09:00pm 7.0 5.2 5.3 89 0.8 WNW 4 9 2 5 1020.4 1020.5 0.0
22/08:30pm 7.8 5.1 5.8 87 0.9 W 9 13 5 7 1020.3 1020.4 0.0
22/08:00pm 8.5 5.9 6.1 85 1.1 W 9 15 5 8 1020.2 1020.3 0.0
22/07:30pm 7.0 4.4 4.3 83 1.2 W 7 9 4 5 1020.1 1020.2 0.0
22/07:00pm 7.1 4.8 4.6 84 1.1 SW 6 13 3 7 1020.0 1020.1 0.0
22/06:30pm 7.8 6.2 4.4 79 1.5 SSE 2 7 1 4 1019.8 1019.9 0.0
22/06:00pm 11.4 9.8 4.6 63 3.1 ENE 2 7 1 4 1019.6 1019.7 0.0
22/05:30pm 13.0 10.3 5.4 60 3.6 ENE 9 13 5 7 1019.2 1019.3 0.0
22/05:00pm 14.6 11.2 5.9 56 4.2 E 13 15 7 8 1018.9 1019.0 0.0
22/04:30pm 15.5 11.2 5.4 51 4.8 ENE 17 22 9 12 1018.5 1018.5 0.0
22/04:00pm 16.5 12.4 6.1 50 5.1 ENE 17 20 9 11 1018.1 1018.1 0.0
22/03:30pm 17.3 12.9 4.9 44 5.9 E 17 26 9 14 1017.8 1017.8 0.0
22/03:00pm 17.7 12.8 4.3 41 6.4 ESE 19 24 10 13 1017.6 1017.6 0.0
22/02:30pm 18.4 14.2 1.4 32 7.7 E 13 20 7 11 1017.4 1017.4 0.0
22/02:00pm 17.8 13.3 -0.5 29 7.9 E 13 20 7 11 1017.6 1017.6 0.0
22/01:30pm 17.4 13.5 -1.3 28 7.9 ENE 9 13 5 7 1017.9 1017.9 0.0
22/01:00pm 17.8 15.0 -0.5 29 7.9 NW 4 11 2 6 1018.2 1018.2 0.0
22/12:30pm 17.3 13.5 -0.9 29 7.7 NE 9 17 5 9 1018.5 1018.5 0.0
22/12:00pm 16.7 12.9 -0.5 31 7.3 N 9 17 5 9 1019.0 1019.1 0.0
22/11:30am 17.0 14.3 0.2 32 7.3 N 4 13 2 7 1019.3 1019.4 0.0
22/11:00am 16.1 12.6 1.4 37 6.5 N 9 13 5 7 1019.5 1019.6 0.0
22/10:30am 15.5 12.2 2.3 41 5.9 NW 9 15 5 8 1019.6 1019.7 0.0
22/10:00am 14.4 10.8 2.9 46 5.2 NNW 11 15 6 8 1019.6 1019.7 0.0
22/09:30am 13.2 9.3 3.6 52 4.3 NW 13 15 7 8 1019.7 1019.8 0.0
22/09:00am 11.9 7.3 3.7 57 3.7 WNW 17 20 9 11 1019.6 1019.7 0.0
22/08:30am 10.6 6.0 3.6 62 3.1 WNW 17 22 9 12 1019.4 1019.5 0.0
22/08:00am 9.3 5.0 3.3 66 2.6 WNW 15 19 8 10 1019.2 1019.3 0.0
22/07:30am 8.0 4.0 3.1 71 2.1 WNW 13 19 7 10 1019.0 1019.1 0.0
22/07:00am 7.0 2.7 3.1 76 1.6 WNW 15 20 8 11 1018.6 1018.6 0.0
22/06:30am 6.6 2.3 3.0 78 1.5 WNW 15 17 8 9 1018.0 1018.0 0.0
22/06:00am 6.6 2.3 3.0 78 1.5 WNW 15 19 8 10 1017.7 1017.7 0.0
22/05:30am 6.9 2.2 3.2 77 1.6 NW 17 22 9 12 1017.6 1017.6 0.0
22/05:00am 7.1 2.4 3.3 77 1.6 NW 17 20 9 11 1017.5 1017.5 0.0
22/04:30am 6.8 2.9 3.2 78 1.5 WNW 13 15 7 8 1017.3 1017.3 0.0
22/04:00am 7.8 6.3 3.1 72 2.0 CALM 0 4 0 2 1017.1 1017.1 0.0
22/03:30am 8.3 4.0 3.4 71 2.1 NW 15 19 8 10 1016.9 1016.9 0.0
22/03:00am 8.3 3.6 3.4 71 2.1 NW 17 20 9 11 1016.7 1016.7 0.0
22/02:30am 8.4 3.2 3.3 70 2.2 NW 20 24 11 13 1016.8 1016.8 0.0
22/02:00am 8.9 3.7 3.5 69 2.3 NW 20 26 11 14 1016.8 1016.8 0.0
22/01:30am 8.8 3.6 3.4 69 2.3 WNW 20 28 11 15 1017.0 1017.0 0.0
22/01:00am 9.0 4.0 3.4 68 2.4 NW 19 22 10 12 1017.1 1017.1 0.0
22/12:30am 8.5 3.5 3.6 71 2.1 WNW 19 20 10 11 1017.4 1017.4 0.0
22/12:00am 7.4 3.9 3.3 75 1.7 W 11 15 6 8 1017.5 1017.5 0.0
 
Date/Time
EST
Temp
°C
App
Temp
°C
Dew
Point
°C
Rel
Hum
%
Delta-T
°C
Wind Press
QNH
hPa
Press
MSL
hPa
Rain since
9am
mm
Dir  Spd
km/h
Gust
km/h
Spd
kts
Gust
kts
21/11:30pm 8.3 5.5 3.4 71 2.1 SW 7 9 4 5 1017.6 1017.6 0.0
21/11:00pm 9.6 5.8 3.8 67 2.5 NW 13 15 7 8 1017.5 1017.5 0.0
21/10:30pm 9.3 5.8 3.7 68 2.5 NW 11 15 6 8 1017.5 1017.5 0.0
21/10:00pm 9.8 5.9 3.5 65 2.8 NW 13 15 7 8 1017.6 1017.6 0.0
21/09:30pm 10.6 7.5 3.4 61 3.2 NNW 9 11 5 6 1017.6 1017.6 0.0
21/09:00pm 10.3 7.2 3.8 64 2.9 NW 9 11 5 6 1017.6 1017.6 0.0
21/08:30pm 10.7 7.8 2.5 57 3.5 NNW 7 9 4 5 1017.5 1017.5 0.0
21/08:00pm 11.5 7.7 1.7 51 4.2 NNW 11 13 6 7 1017.2 1017.2 0.0
21/07:30pm 11.0 8.1 2.8 57 3.6 W 7 11 4 6 1017.0 1017.0 0.0
21/07:00pm 12.0 8.9 1.3 48 4.5 WNW 7 11 4 6 1016.6 1016.6 0.0
21/06:30pm 12.3 9.2 1.3 47 4.7 W 7 9 4 5 1016.4 1016.4 0.0
21/06:00pm 12.7 8.7 2.6 50 4.4 W 13 19 7 10 1016.1 1016.1 0.0
21/05:30pm 12.7 9.9 5.1 60 3.5 W 9 11 5 6 1015.8 1015.8 0.0
21/05:00pm 14.0 10.7 2.6 46 5.1 NNW 9 9 5 5 1015.3 1015.3 0.0
21/04:30pm 14.3 11.5 3.2 47 5.0 N 7 9 4 5 1015.0 1015.0 0.0
21/04:00pm 14.8 11.9 2.4 43 5.5 N 7 11 4 6 1014.7 1014.7 0.0
21/03:30pm 14.9 11.5 2.1 42 5.7 NNW 9 13 5 7 1014.7 1014.7 0.0
21/03:00pm 15.5 11.7 1.6 39 6.1 N 11 15 6 8 1014.7 1014.7 0.0
21/02:30pm 15.5 11.4 2.3 41 5.9 NNE 13 19 7 10 1014.8 1014.8 0.0
21/02:00pm 14.9 10.9 3.1 45 5.3 NNE 13 17 7 9 1014.9 1014.9 0.0
21/01:30pm 14.7 11.0 2.6 44 5.4 N 11 15 6 8 1015.3 1015.3 0.0
21/01:00pm 14.0 10.4 5.1 55 4.2 N 13 15 7 8 1015.9 1015.9 0.0
21/12:30pm 14.4 11.8 6.0 57 4.0 N 9 13 5 7 1016.5 1016.5 0.0
21/12:00pm 13.9 11.6 5.5 57 4.0 WNW 7 11 4 6 1017.1 1017.1 0.0
21/11:30am 13.6 11.8 5.3 57 3.9 NNW 4 9 2 5 1017.3 1017.3 0.0
21/11:00am 13.1 10.8 5.8 61 3.4 W 7 9 4 5 1017.6 1017.6 0.0
21/10:30am 12.7 9.5 5.1 60 3.5 WNW 11 15 6 8 1018.0 1018.0 0.0
21/10:00am 12.4 9.4 5.8 64 3.1 WNW 11 15 6 8 1018.1 1018.1 0.0
21/09:30am 11.7 9.2 6.6 71 2.4 NNW 9 11 5 6 1018.3 1018.3 0.0
21/09:00am 11.0 8.3 5.5 69 2.5 NW 9 13 5 7 1018.3 1018.3 0.0
21/08:30am 9.7 7.5 6.4 80 1.5 WNW 7 11 4 6 1018.9 1019.0 0.0
21/08:00am 8.0 5.3 5.6 85 1.1 NW 9 11 5 6 1018.9 1019.0 0.0
21/07:30am 7.3 4.3 6.1 92 0.5 NW 11 15 6 8 1018.9 1019.0 0.0
21/07:00am 5.1 3.8 4.2 94 0.4 CALM 0 0 0 0 1018.6 1018.6 0.0
21/06:30am 5.9 4.6 4.2 89 0.7 CALM 0 6 0 3 1018.6 1018.6 0.0
21/06:00am 7.3 4.5 5.1 86 1.0 WNW 9 11 5 6 1018.5 1018.5 0.0
21/05:30am 7.1 4.2 4.9 86 1.0 WNW 9 13 5 7 1018.4 1018.4 0.0
21/05:00am 6.2 3.7 4.7 90 0.7 NW 7 9 4 5 1018.4 1018.4 0.0
21/04:30am 5.8 2.5 4.6 92 0.5 WNW 11 17 6 9 1018.6 1018.6 0.0
21/04:00am 5.9 1.9 4.7 92 0.5 WNW 15 17 8 9 1019.2 1019.3 0.0
21/03:30am 5.6 2.2 4.2 91 0.6 NW 11 13 6 7 1019.3 1019.4 0.0
21/03:00am 6.3 2.2 4.6 89 0.7 WNW 15 17 8 9 1019.7 1019.8 0.0
21/02:30am 6.4 2.7 4.6 88 0.8 WNW 13 15 7 8 1019.5 1019.6 0.0
21/02:00am 6.6 3.7 4.9 89 0.7 W 9 11 5 6 1019.6 1019.7 0.0
21/01:30am 6.5 4.6 4.8 89 0.7 NW 4 9 2 5 1019.7 1019.8 0.0
21/01:00am 6.2 2.9 4.8 91 0.6 WNW 11 13 6 7 1020.0 1020.1 0.0
21/12:30am 5.7 3.6 4.0 89 0.7 WNW 4 11 2 6 1020.2 1020.3 0.0
21/12:00am 6.2 3.6 4.4 88 0.8 WNW 7 9 4 5 1020.6 1020.7 0.0

Other Formats:

Comma delimited format used in spreadsheet applications
http://www.bom.gov.au/fwo/IDN60801/IDN60801.94750.axf

JavaScript Object Notation format (JSON) in row-major order
http://www.bom.gov.au/fwo/IDN60801/IDN60801.94750.json